createdAt,value
2018-08-13T00:03:41.893Z,31.00
2018-08-13T00:08:45.123Z,30.90
2018-08-13T00:13:48.318Z,30.70
2018-08-13T00:18:51.497Z,30.70
2018-08-13T00:23:54.684Z,30.70
2018-08-13T00:28:57.894Z,30.70
2018-08-13T00:34:01.165Z,30.70
2018-08-13T00:39:08.293Z,30.70
2018-08-13T00:44:11.522Z,30.90
2018-08-13T00:49:14.736Z,31.10
2018-08-13T00:54:17.910Z,31.00
2018-08-13T00:59:21.720Z,31.00
2018-08-13T01:04:24.940Z,31.10
2018-08-13T01:09:28.248Z,31.20
2018-08-13T01:14:31.779Z,31.20
2018-08-13T01:19:35.145Z,31.10
2018-08-13T01:24:38.556Z,31.10
2018-08-13T01:29:41.758Z,31.10
2018-08-13T01:34:44.976Z,31.30
2018-08-13T01:39:48.360Z,31.10
2018-08-13T01:44:51.572Z,31.00
2018-08-13T01:49:54.822Z,31.10
2018-08-13T01:54:58.051Z,31.20
2018-08-13T02:00:01.498Z,31.20
2018-08-13T02:05:05.898Z,31.20
2018-08-13T02:10:11.066Z,31.10
2018-08-13T02:15:14.269Z,31.10
2018-08-13T02:20:17.671Z,31.00
2018-08-13T02:25:21.065Z,31.10
2018-08-13T02:30:24.254Z,31.00
2018-08-13T02:35:27.800Z,31.60
2018-08-13T02:40:30.972Z,31.40
2018-08-13T02:45:34.194Z,31.50
2018-08-13T02:50:37.790Z,31.60
2018-08-13T02:55:41.035Z,31.70
2018-08-13T03:00:44.239Z,31.70
2018-08-13T03:05:48.334Z,31.80
2018-08-13T03:10:51.611Z,31.80
2018-08-13T03:15:54.892Z,31.90
2018-08-13T03:20:58.153Z,32.00
2018-08-13T03:26:01.521Z,32.10
2018-08-13T03:31:04.724Z,32.10
2018-08-13T03:36:08.438Z,32.20
2018-08-13T03:41:11.808Z,33.00
2018-08-13T03:46:15.008Z,32.30
2018-08-13T03:51:18.188Z,32.40
2018-08-13T03:56:21.389Z,32.60
2018-08-13T04:01:24.924Z,32.60
2018-08-13T04:06:28.137Z,32.80
2018-08-13T04:11:31.560Z,32.90
2018-08-13T04:16:34.812Z,33.10
2018-08-13T04:21:38.125Z,33.10
2018-08-13T04:26:41.388Z,33.10
2018-08-13T04:31:44.567Z,33.20
2018-08-13T04:36:47.880Z,33.10
2018-08-13T04:41:51.168Z,33.10
2018-08-13T04:46:54.406Z,33.10
2018-08-13T04:51:57.803Z,33.20
2018-08-13T04:57:01.236Z,33.20
2018-08-13T05:02:04.678Z,33.20
2018-08-13T05:07:08.724Z,33.30
2018-08-13T05:12:12.670Z,33.30
2018-08-13T05:17:16.462Z,33.30
2018-08-13T05:22:20.423Z,33.30
2018-08-13T05:27:23.681Z,33.40
2018-08-13T05:32:27.029Z,33.30
2018-08-13T05:37:30.339Z,33.40
2018-08-13T05:42:33.808Z,33.50
2018-08-13T05:47:37.115Z,33.40
2018-08-13T05:52:40.666Z,33.40
2018-08-13T05:57:44.612Z,33.40
2018-08-13T06:02:47.838Z,33.50
2018-08-13T06:07:51.219Z,33.40
2018-08-13T06:12:54.472Z,33.40
2018-08-13T06:17:57.766Z,33.40
2018-08-13T06:23:02.929Z,33.40
2018-08-13T06:28:06.545Z,33.50
2018-08-13T06:33:09.896Z,33.50
2018-08-13T06:38:13.757Z,33.60
2018-08-13T06:43:17.019Z,33.60
2018-08-13T06:48:20.768Z,33.50
2018-08-13T06:53:23.957Z,33.50
2018-08-13T06:58:27.339Z,33.40
2018-08-13T07:03:31.342Z,33.50
2018-08-13T07:08:34.655Z,33.60
2018-08-13T07:13:38.135Z,33.30
2018-08-13T07:18:41.564Z,33.30
2018-08-13T07:23:44.921Z,33.40
2018-08-13T07:28:48.353Z,33.30
2018-08-13T07:33:51.644Z,33.40
2018-08-13T07:38:55.338Z,33.30
2018-08-13T07:43:59.335Z,33.20
2018-08-13T07:49:03.409Z,33.30
2018-08-13T07:54:07.802Z,33.20
2018-08-13T07:59:11.162Z,33.00
2018-08-13T08:04:14.466Z,33.00
2018-08-13T08:09:17.898Z,33.00
2018-08-13T08:14:21.449Z,32.90
2018-08-13T08:19:25.230Z,32.80
2018-08-13T08:24:28.748Z,32.80
2018-08-13T08:29:33.020Z,32.80
2018-08-13T08:34:37.072Z,32.80
2018-08-13T08:39:40.522Z,32.80
2018-08-13T08:44:44.283Z,32.80
2018-08-13T08:49:47.630Z,32.90
2018-08-13T08:54:50.976Z,33.00
2018-08-13T08:59:54.245Z,33.00
2018-08-13T09:04:57.922Z,33.00
2018-08-13T09:10:01.329Z,33.10
2018-08-13T09:15:05.239Z,33.10
2018-08-13T09:20:19.861Z,33.10
2018-08-13T09:25:35.234Z,33.30
2018-08-13T09:30:49.858Z,33.20
2018-08-13T09:35:53.067Z,33.20
2018-08-13T09:40:56.650Z,33.20
2018-08-13T09:45:59.925Z,33.20
2018-08-13T09:51:03.256Z,33.30
2018-08-13T09:56:06.850Z,33.20
2018-08-13T10:01:11.451Z,33.20
2018-08-13T10:06:15.283Z,33.40
2018-08-13T10:11:18.567Z,33.40
2018-08-13T10:16:21.997Z,33.30
2018-08-13T10:21:25.993Z,33.40
2018-08-13T10:26:29.313Z,33.70
2018-08-13T10:31:32.930Z,33.90
2018-08-13T10:36:36.580Z,33.90
2018-08-13T10:41:39.813Z,34.00
2018-08-13T10:46:43.290Z,34.00
2018-08-13T10:51:47.151Z,34.10
2018-08-13T10:56:50.458Z,34.20
2018-08-13T11:01:54.055Z,34.30
2018-08-13T11:06:57.856Z,34.20
2018-08-13T11:12:01.619Z,34.30
2018-08-13T11:17:05.117Z,34.20
2018-08-13T11:22:08.917Z,34.30
2018-08-13T11:27:13.253Z,34.30
2018-08-13T11:32:16.502Z,34.30
2018-08-13T11:37:19.718Z,34.20
2018-08-13T11:42:23.020Z,34.20
2018-08-13T11:47:26.348Z,34.20
2018-08-13T11:52:30.150Z,34.20
2018-08-13T11:57:33.918Z,34.20
2018-08-13T12:02:37.672Z,34.20
2018-08-13T12:07:41.289Z,34.20
2018-08-13T12:12:44.920Z,34.40
2018-08-13T12:17:48.339Z,34.40
2018-08-13T12:22:51.567Z,34.40
2018-08-13T12:27:55.081Z,34.40
2018-08-13T12:32:58.702Z,34.60
2018-08-13T12:38:02.024Z,34.40
2018-08-13T12:43:05.694Z,34.30
2018-08-13T12:48:09.209Z,34.30
2018-08-13T12:53:12.433Z,34.30
2018-08-13T12:58:15.600Z,34.50
2018-08-13T13:03:19.160Z,34.50
2018-08-13T13:08:22.447Z,34.60
2018-08-13T13:13:26.240Z,34.60
2018-08-13T13:18:29.643Z,34.60
2018-08-13T13:23:32.885Z,34.60
2018-08-13T13:28:36.129Z,34.50
2018-08-13T13:33:39.446Z,34.40
2018-08-13T13:38:42.817Z,34.30
2018-08-13T13:43:46.210Z,34.60
2018-08-13T13:48:49.813Z,34.60
2018-08-13T13:53:53.429Z,34.70
2018-08-13T13:58:56.671Z,34.60
2018-08-13T14:04:00.201Z,34.70
2018-08-13T14:09:04.350Z,34.70
2018-08-13T14:14:08.348Z,34.80
2018-08-13T14:19:12.414Z,34.80
2018-08-13T14:24:15.650Z,34.90
2018-08-13T14:29:19.334Z,35.10
2018-08-13T14:34:23.582Z,35.00
2018-08-13T14:39:26.809Z,35.10
2018-08-13T14:44:30.475Z,35.10
2018-08-13T14:49:33.985Z,35.10
2018-08-13T14:54:37.250Z,35.30
2018-08-13T14:59:40.662Z,35.10
2018-08-13T15:04:44.165Z,35.20
2018-08-13T15:09:47.576Z,35.30
2018-08-13T15:14:51.426Z,35.20
2018-08-13T15:19:54.835Z,35.20
2018-08-13T15:24:58.802Z,35.20
2018-08-13T15:30:02.663Z,34.80
2018-08-13T15:35:06.018Z,34.60
2018-08-13T15:40:10.081Z,34.60
2018-08-13T15:45:17.043Z,34.70
2018-08-13T15:50:22.774Z,34.70
2018-08-13T15:55:26.285Z,34.60
2018-08-13T16:00:29.542Z,34.90
2018-08-13T16:05:34.067Z,34.90
2018-08-13T16:10:37.585Z,35.30
2018-08-13T16:15:40.984Z,35.60
2018-08-13T16:20:44.285Z,35.90
2018-08-13T16:25:47.538Z,36.00
2018-08-13T16:30:50.990Z,36.40
2018-08-13T16:35:54.304Z,36.80
2018-08-13T16:40:57.549Z,37.30
2018-08-13T16:46:00.798Z,37.70
2018-08-13T16:51:04.495Z,38.10
2018-08-13T16:56:08.568Z,38.40
2018-08-13T17:01:11.878Z,38.50
2018-08-13T17:06:15.459Z,39.40
2018-08-13T17:11:18.923Z,39.20
2018-08-13T17:16:22.670Z,39.10
2018-08-13T17:21:26.191Z,39.50
2018-08-13T17:26:29.625Z,40.50
2018-08-13T17:31:32.986Z,40.10
2018-08-13T17:36:36.462Z,39.60
2018-08-13T17:41:40.212Z,40.30
2018-08-13T17:46:43.885Z,40.60
2018-08-13T17:51:47.591Z,41.10
2018-08-13T17:56:51.301Z,41.30
2018-08-13T18:01:54.762Z,41.20
2018-08-13T18:06:57.982Z,41.40
2018-08-13T18:12:01.516Z,40.80
2018-08-13T18:17:04.915Z,41.40
2018-08-13T18:22:08.373Z,41.50
2018-08-13T18:27:11.685Z,41.00
2018-08-13T18:32:14.965Z,41.60
2018-08-13T18:37:18.323Z,41.50
2018-08-13T18:42:21.828Z,41.60
2018-08-13T18:47:25.343Z,42.10
2018-08-13T18:52:30.262Z,42.20
2018-08-13T18:57:34.085Z,42.50
2018-08-13T19:02:37.641Z,43.00
2018-08-13T19:07:40.997Z,42.90
2018-08-13T19:12:44.271Z,43.70
2018-08-13T19:17:48.899Z,43.30
2018-08-13T19:22:52.720Z,44.30
2018-08-13T19:27:56.775Z,44.20
2018-08-13T19:33:00.247Z,44.60
2018-08-13T19:38:03.698Z,45.00
2018-08-13T19:43:07.116Z,45.40
2018-08-13T19:48:10.339Z,45.10
2018-08-13T19:53:13.646Z,45.00
2018-08-13T19:58:17.045Z,44.40
2018-08-13T20:03:20.389Z,44.60
2018-08-13T20:08:24.033Z,45.00
2018-08-13T20:13:27.746Z,45.40
2018-08-13T20:18:31.103Z,45.50
2018-08-13T20:23:34.465Z,46.10
2018-08-13T20:28:37.686Z,47.00
2018-08-13T20:33:41.650Z,47.10
2018-08-13T20:38:45.022Z,47.50
2018-08-13T20:43:48.251Z,47.20
2018-08-13T20:48:52.090Z,47.80
2018-08-13T20:53:55.324Z,47.90
2018-08-13T20:58:58.539Z,48.40
2018-08-13T21:04:01.909Z,48.20
2018-08-13T21:09:08.775Z,48.20
2018-08-13T21:14:12.753Z,49.30
2018-08-13T21:19:16.099Z,49.70
2018-08-13T21:24:19.313Z,48.50
2018-08-13T21:29:22.534Z,48.70
2018-08-13T21:34:26.095Z,48.20
2018-08-13T21:39:30.457Z,47.90
2018-08-13T21:44:33.820Z,47.90
2018-08-13T21:49:37.103Z,48.00
2018-08-13T21:54:40.418Z,47.80
2018-08-13T21:59:44.225Z,48.30
2018-08-13T22:04:48.013Z,48.70
2018-08-13T22:09:51.261Z,48.60
2018-08-13T22:14:54.657Z,48.90
2018-08-13T22:19:57.901Z,48.50
2018-08-13T22:25:02.404Z,49.00
2018-08-13T22:30:07.488Z,49.30
2018-08-13T22:35:11.181Z,48.80
2018-08-13T22:40:17.531Z,48.60
2018-08-13T22:45:21.785Z,49.30
2018-08-13T22:50:24.935Z,50.10
2018-08-13T22:55:28.862Z,50.00
2018-08-13T23:00:32.175Z,50.20
2018-08-13T23:05:35.728Z,49.50
2018-08-13T23:10:38.975Z,50.20
2018-08-13T23:15:42.486Z,51.00
2018-08-13T23:20:45.708Z,50.00
2018-08-13T23:25:48.942Z,49.40
2018-08-13T23:30:52.952Z,49.40
2018-08-13T23:35:56.115Z,49.10
2018-08-13T23:40:59.560Z,49.10
2018-08-13T23:46:02.925Z,49.00
2018-08-13T23:51:06.153Z,49.20
2018-08-13T23:56:09.601Z,49.30
